Time;durP1;ratioP1;P1;durP2;ratioP2;P2;SDS_P1;SDS_P2;PMS_P1;PMS_P2;Temp;Humidity;BMP_temperature;BMP_pressure;BME280_temperature;BME280_humidity;BME280_pressure;Samples;Min_cycle;Max_cycle;Signal;HPM_P1;HPM_P2
2022/03/28 00:02:21;;;;;;;10.20;7.87;;;9.10;67.60;;;;;;5037269;28;20557;-82
2022/03/28 00:04:47;;;;;;;11.83;7.60;;;9.00;68.00;;;;;;5037529;28;20452;-81
2022/03/28 00:07:14;;;;;;;10.95;8.07;;;9.00;68.70;;;;;;5018503;28;20941;-81
2022/03/28 00:09:41;;;;;;;9.93;7.70;;;9.00;69.00;;;;;;5022137;28;20203;-82
2022/03/28 00:12:10;;;;;;;10.38;8.20;;;8.90;69.20;;;;;;5037961;28;20466;-82
2022/03/28 00:14:37;;;;;;;11.98;8.88;;;8.80;68.90;;;;;;5037602;28;20350;-82
2022/03/28 00:17:04;;;;;;;10.20;8.63;;;8.70;68.70;;;;;;5018972;28;20598;-82
2022/03/28 00:19:31;;;;;;;8.97;8.03;;;8.70;69.40;;;;;;5018746;28;20824;-82
2022/03/28 00:21:57;;;;;;;10.37;8.00;;;8.70;69.20;;;;;;5038300;28;20452;-82
2022/03/28 00:24:25;;;;;;;10.90;8.75;;;8.70;69.40;;;;;;5038455;28;20453;-82
2022/03/28 00:26:52;;;;;;;11.57;9.60;;;8.70;69.30;;;;;;5037959;28;20207;-82
2022/03/28 00:29:20;;;;;;;10.93;9.83;;;8.60;69.70;;;;;;5044970;28;20211;-82
2022/03/28 00:31:47;;;;;;;12.43;9.73;;;8.70;70.10;;;;;;5050885;28;20562;-83
2022/03/28 00:34:15;;;;;;;10.67;9.10;;;8.60;70.30;;;;;;5037308;28;20529;-82
2022/03/28 00:36:42;;;;;;;15.82;9.43;;;8.60;70.60;;;;;;5032667;28;20552;-82
2022/03/28 00:39:08;;;;;;;12.55;9.50;;;8.60;71.00;;;;;;5049938;28;20199;-82
2022/03/28 00:41:35;;;;;;;12.07;8.85;;;8.60;71.00;;;;;;5057710;28;20218;-82
2022/03/28 00:44:02;;;;;;;9.73;8.32;;;8.50;70.60;;;;;;5026499;28;20477;-83
2022/03/28 00:46:32;;;;;;;12.47;9.10;;;8.50;70.50;;;;;;5019553;28;20216;-83
2022/03/28 00:48:59;;;;;;;9.50;8.03;;;8.50;70.50;;;;;;5035612;28;21046;-83
2022/03/28 00:51:25;;;;;;;12.07;8.43;;;8.50;70.50;;;;;;5039030;28;20475;-83
2022/03/28 00:53:52;;;;;;;12.13;8.27;;;8.40;71.20;;;;;;5038423;28;20202;-83
2022/03/28 00:56:20;;;;;;;12.27;8.75;;;8.20;71.60;;;;;;4999739;28;20533;-83
2022/03/28 00:58:47;;;;;;;10.50;9.43;;;8.30;71.80;;;;;;5014299;28;20205;-83
2022/03/28 01:01:14;;;;;;;13.77;9.20;;;8.30;71.70;;;;;;5033364;28;20485;-83
2022/03/28 01:03:43;;;;;;;13.40;7.95;;;8.20;71.30;;;;;;5038656;28;20211;-82
2022/03/28 01:06:09;;;;;;;9.20;8.32;;;8.20;71.20;;;;;;5022642;28;20220;-83
2022/03/28 01:08:36;;;;;;;9.70;7.43;;;8.20;70.80;;;;;;5019044;28;20206;-82
2022/03/28 01:11:05;;;;;;;10.85;9.75;;;8.20;70.60;;;;;;5021861;28;20226;-83
2022/03/28 01:13:34;;;;;;;8.68;6.88;;;8.10;70.50;;;;;;5017800;28;20216;-82
2022/03/28 01:16:01;;;;;;;9.05;7.20;;;8.10;70.00;;;;;;5018507;28;20210;-82
2022/03/28 01:18:27;;;;;;;12.40;6.80;;;8.10;69.90;;;;;;5018009;28;20220;-82
2022/03/28 01:20:56;;;;;;;11.52;7.82;;;8.10;70.00;;;;;;5029029;28;20307;-82
2022/03/28 01:23:24;;;;;;;10.82;8.00;;;8.10;70.30;;;;;;5037182;28;20207;-82
2022/03/28 01:25:52;;;;;;;10.40;7.88;;;8.00;70.70;;;;;;5036524;28;20209;-82
2022/03/28 01:28:19;;;;;;;10.60;9.02;;;8.00;70.80;;;;;;4999052;28;20208;-82
2022/03/28 01:30:49;;;;;;;9.40;7.60;;;8.00;70.90;;;;;;5014819;28;20228;-82
2022/03/28 01:33:16;;;;;;;10.15;8.88;;;8.00;71.10;;;;;;5038158;28;20673;-81
2022/03/28 01:35:44;;;;;;;12.38;6.45;;;8.00;71.30;;;;;;5036919;28;20212;-82
2022/03/28 01:38:14;;;;;;;11.50;7.45;;;7.90;70.90;;;;;;5038083;28;20247;-82
2022/03/28 01:40:43;;;;;;;9.70;8.00;;;7.90;71.00;;;;;;5033464;28;20227;-81
2022/03/28 01:43:10;;;;;;;11.40;7.70;;;7.90;71.40;;;;;;5037057;28;20215;-81
2022/03/28 01:45:37;;;;;;;11.40;7.95;;;7.80;71.80;;;;;;5038013;28;20204;-81
2022/03/28 01:48:04;;;;;;;12.35;6.50;;;7.80;72.00;;;;;;5024683;28;20208;-81
2022/03/28 01:50:31;;;;;;;8.98;6.93;;;7.80;72.10;;;;;;5029316;28;20222;-80
2022/03/28 01:52:58;;;;;;;8.65;7.75;;;7.70;72.30;;;;;;5044783;28;20219;-81
2022/03/28 01:55:26;;;;;;;12.73;7.93;;;7.70;72.70;;;;;;5035078;28;20704;-81
2022/03/28 01:57:53;;;;;;;10.35;7.20;;;7.70;73.10;;;;;;5024820;28;20226;-80
2022/03/28 02:00:23;;;;;;;9.15;7.53;;;7.70;73.30;;;;;;5024170;28;20239;-81
2022/03/28 02:02:50;;;;;;;8.70;6.97;;;7.70;73.50;;;;;;5030972;28;20240;-81
2022/03/28 02:05:17;;;;;;;8.18;7.03;;;7.60;73.70;;;;;;5043795;28;20210;-81
2022/03/28 02:07:46;;;;;;;9.77;7.88;;;7.60;74.10;;;;;;5039034;28;20214;-81
2022/03/28 02:10:15;;;;;;;10.00;7.07;;;7.60;74.60;;;;;;5024285;28;20236;-81
2022/03/28 02:12:43;;;;;;;10.23;7.35;;;7.60;74.90;;;;;;5024748;28;20199;-81
2022/03/28 02:15:11;;;;;;;11.43;8.00;;;7.50;74.90;;;;;;5026136;28;20621;-80
2022/03/28 02:17:38;;;;;;;10.25;8.00;;;7.50;75.10;;;;;;5024654;28;20231;-81
2022/03/28 02:20:06;;;;;;;9.18;7.53;;;7.50;75.60;;;;;;5026570;28;20235;-81
2022/03/28 02:22:33;;;;;;;9.68;7.65;;;7.50;76.10;;;;;;5043907;28;20216;-81
2022/03/28 02:25:00;;;;;;;10.23;8.35;;;7.50;76.40;;;;;;5041669;28;20207;-81
2022/03/28 02:27:27;;;;;;;9.40;7.03;;;7.50;76.00;;;;;;5024041;28;20203;-81
2022/03/28 02:29:55;;;;;;;11.73;8.10;;;7.50;76.10;;;;;;5024983;28;20231;-80
2022/03/28 02:32:22;;;;;;;10.55;8.85;;;7.40;76.20;;;;;;5041790;28;20205;-81
2022/03/28 02:34:48;;;;;;;9.75;8.73;;;7.40;76.90;;;;;;5043895;28;20210;-81
2022/03/28 02:37:15;;;;;;;12.55;9.32;;;7.40;78.00;;;;;;5024505;28;20219;-81
2022/03/28 02:39:42;;;;;;;9.02;7.78;;;7.30;78.70;;;;;;5023328;28;20697;-80
2022/03/28 02:42:09;;;;;;;10.73;9.60;;;7.30;79.10;;;;;;5025793;28;20213;-80
2022/03/28 02:44:36;;;;;;;10.25;8.52;;;7.30;79.30;;;;;;5030088;28;20198;-80
2022/03/28 02:47:05;;;;;;;12.63;10.02;;;7.30;78.90;;;;;;5047564;28;20205;-80
2022/03/28 02:49:32;;;;;;;11.27;9.38;;;7.30;77.90;;;;;;5044570;28;20210;-81
2022/03/28 02:51:58;;;;;;;10.57;9.18;;;7.30;76.70;;;;;;5026200;28;20205;-81
2022/03/28 02:54:25;;;;;;;12.00;9.60;;;7.30;75.60;;;;;;5028617;28;20210;-80
2022/03/28 02:56:52;;;;;;;11.77;9.48;;;7.30;75.50;;;;;;5046580;28;20223;-81
2022/03/28 02:59:18;;;;;;;12.57;9.15;;;7.30;75.60;;;;;;5046844;28;20202;-80
2022/03/28 03:01:46;;;;;;;10.55;9.20;;;7.40;74.90;;;;;;5023617;28;20227;-80
2022/03/28 03:04:15;;;;;;;13.13;10.48;;;7.40;74.80;;;;;;5027618;28;20236;-80
2022/03/28 03:06:41;;;;;;;15.82;10.55;;;7.40;74.10;;;;;;5043261;28;20210;-80
2022/03/28 03:09:09;;;;;;;12.40;11.10;;;7.50;75.30;;;;;;5041702;28;20210;-81
2022/03/28 03:11:35;;;;;;;11.82;10.55;;;7.50;76.30;;;;;;5021904;28;20227;-80
2022/03/28 03:14:03;;;;;;;10.65;8.70;;;7.50;76.80;;;;;;5024436;28;20230;-80
2022/03/28 03:16:30;;;;;;;14.23;10.38;;;7.40;77.30;;;;;;5004308;28;20212;-79
2022/03/28 03:18:57;;;;;;;8.93;7.80;;;7.40;77.70;;;;;;5022969;28;20223;-80
2022/03/28 03:21:25;;;;;;;8.73;7.60;;;7.40;77.30;;;;;;5022673;28;20479;-80
2022/03/28 03:23:52;;;;;;;13.85;9.30;;;7.40;76.90;;;;;;5040444;28;20577;-80
2022/03/28 03:26:18;;;;;;;11.57;10.27;;;7.30;76.50;;;;;;5043395;28;20209;-80
2022/03/28 03:28:45;;;;;;;13.55;9.93;;;7.30;76.40;;;;;;5026765;28;20207;-79
2022/03/28 03:31:12;;;;;;;10.85;8.23;;;7.30;76.20;;;;;;5021149;28;20577;-81
2022/03/28 03:33:38;;;;;;;13.00;9.93;;;7.30;76.10;;;;;;5036705;28;20202;-79
2022/03/28 03:36:06;;;;;;;12.82;9.52;;;7.30;75.90;;;;;;5041602;28;20215;-79
2022/03/28 03:38:34;;;;;;;13.65;9.95;;;7.20;75.80;;;;;;5042182;28;20253;-80
2022/03/28 03:41:01;;;;;;;11.73;10.57;;;7.20;76.60;;;;;;5029706;28;20627;-81
2022/03/28 03:43:28;;;;;;;9.15;8.32;;;7.20;77.60;;;;;;5023108;28;20213;-80
2022/03/28 03:45:55;;;;;;;12.80;9.10;;;7.10;76.70;;;;;;5033328;28;20212;-80
2022/03/28 03:48:22;;;;;;;14.23;9.27;;;7.10;76.90;;;;;;5043055;28;20211;-80
2022/03/28 03:50:48;;;;;;;14.38;9.25;;;7.10;77.00;;;;;;5033041;28;20286;-80
2022/03/28 03:53:15;;;;;;;11.38;8.98;;;7.10;77.00;;;;;;5022282;28;20211;-79
2022/03/28 03:55:43;;;;;;;10.48;9.32;;;7.00;76.90;;;;;;5024177;28;20298;-80
2022/03/28 03:58:10;;;;;;;10.85;8.80;;;7.00;77.20;;;;;;5026503;28;20335;-79
2022/03/28 04:00:37;;;;;;;12.13;10.93;;;6.90;77.30;;;;;;5021707;28;20235;-80
2022/03/28 04:03:04;;;;;;;13.55;9.32;;;6.90;77.50;;;;;;5028529;28;20202;-80
2022/03/28 04:05:30;;;;;;;14.60;11.00;;;6.90;77.20;;;;;;5043747;28;20625;-80
2022/03/28 04:07:57;;;;;;;10.55;8.27;;;6.90;76.80;;;;;;5039278;28;20538;-80
2022/03/28 04:10:24;;;;;;;9.80;8.35;;;6.90;77.00;;;;;;5021861;28;20748;-79
2022/03/28 04:12:52;;;;;;;14.38;9.23;;;6.90;77.10;;;;;;5027938;28;20254;-81
2022/03/28 04:15:19;;;;;;;12.80;8.43;;;6.80;77.30;;;;;;5038101;28;20191;-79
2022/03/28 04:17:46;;;;;;;16.10;10.10;;;6.80;77.60;;;;;;5037466;28;20230;-81
2022/03/28 04:20:15;;;;;;;18.17;8.85;;;6.80;79.10;;;;;;5047036;28;20222;-80
2022/03/28 04:22:43;;;;;;;12.98;9.52;;;6.80;78.80;;;;;;5045998;28;20198;-80
2022/03/28 04:25:11;;;;;;;16.48;11.65;;;6.70;79.30;;;;;;5047640;28;20218;-80
2022/03/28 04:27:38;;;;;;;16.63;9.80;;;6.70;79.60;;;;;;5041199;28;20225;-80
2022/03/28 04:30:08;;;;;;;14.18;11.48;;;6.70;80.00;;;;;;5029977;28;20219;-79
2022/03/28 04:32:35;;;;;;;16.38;10.45;;;6.70;80.50;;;;;;5047445;28;20579;-80
2022/03/28 04:35:03;;;;;;;12.00;8.68;;;6.70;81.10;;;;;;5046105;28;20203;-80
2022/03/28 04:37:33;;;;;;;14.07;9.88;;;6.70;81.60;;;;;;5047115;28;20229;-80
2022/03/28 04:40:00;;;;;;;12.70;10.05;;;6.60;81.80;;;;;;5044736;28;20272;-80
2022/03/28 04:42:27;;;;;;;12.35;8.35;;;6.60;82.10;;;;;;5027270;28;20633;-78
2022/03/28 04:44:54;;;;;;;15.88;10.63;;;6.60;82.50;;;;;;5027844;28;20581;-80
2022/03/28 04:47:22;;;;;;;12.00;9.07;;;6.50;83.10;;;;;;5045098;28;20202;-80
2022/03/28 04:49:49;;;;;;;11.27;8.85;;;6.50;83.50;;;;;;5045832;28;20234;-79
2022/03/28 04:52:15;;;;;;;13.55;9.35;;;6.40;83.60;;;;;;5026294;28;20203;-80
2022/03/28 04:54:42;;;;;;;12.38;9.23;;;6.40;84.10;;;;;;5026673;28;20211;-79
2022/03/28 04:57:09;;;;;;;12.23;10.68;;;6.40;84.40;;;;;;5044191;28;20209;-80
2022/03/28 04:59:36;;;;;;;13.35;9.27;;;6.30;84.50;;;;;;5032529;28;20553;-80
2022/03/28 05:02:03;;;;;;;13.93;10.30;;;6.40;85.00;;;;;;5025727;28;20207;-79
2022/03/28 05:04:31;;;;;;;16.05;11.23;;;6.30;85.20;;;;;;5036225;28;20214;-79
2022/03/28 05:06:57;;;;;;;15.23;9.85;;;6.20;85.70;;;;;;5045894;28;20202;-79
2022/03/28 05:09:26;;;;;;;12.90;10.05;;;6.20;86.00;;;;;;5035566;28;20199;-83
2022/03/28 05:11:53;;;;;;;16.15;10.52;;;6.20;86.30;;;;;;5026160;28;20207;-79
2022/03/28 05:14:22;;;;;;;16.17;11.10;;;6.20;86.80;;;;;;5037586;28;20234;-79
2022/03/28 05:16:49;;;;;;;12.55;10.27;;;6.20;87.10;;;;;;5025697;28;20203;-80
2022/03/28 05:19:15;;;;;;;15.52;9.55;;;6.10;87.30;;;;;;5025141;28;20310;-79
2022/03/28 05:21:43;;;;;;;14.68;11.35;;;6.20;87.70;;;;;;5024726;28;20227;-80
2022/03/28 05:24:10;;;;;;;17.48;10.77;;;6.20;87.70;;;;;;5042161;28;20207;-80
2022/03/28 05:26:37;;;;;;;17.98;10.73;;;6.10;87.60;;;;;;5044939;28;20216;-79
2022/03/28 05:29:04;;;;;;;12.38;11.18;;;6.10;87.90;;;;;;5028763;28;20206;-79
2022/03/28 05:31:31;;;;;;;13.70;9.80;;;6.10;88.80;;;;;;5029837;28;20233;-80
2022/03/28 05:33:57;;;;;;;14.63;10.77;;;6.00;88.90;;;;;;5045596;28;20194;-80
2022/03/28 05:36:25;;;;;;;14.52;11.38;;;6.00;89.20;;;;;;5051280;28;20218;-80
2022/03/28 05:38:53;;;;;;;15.90;10.73;;;6.10;89.20;;;;;;5035960;28;20227;-80
2022/03/28 05:41:21;;;;;;;16.20;10.85;;;6.00;89.20;;;;;;5025669;28;20239;-81
2022/03/28 05:43:47;;;;;;;15.07;10.95;;;6.00;89.30;;;;;;5037515;28;20209;-80
2022/03/28 05:46:14;;;;;;;11.52;9.50;;;6.00;90.00;;;;;;5044849;28;20213;-80
2022/03/28 05:48:41;;;;;;;19.15;9.95;;;6.00;90.90;;;;;;5034284;28;20290;-82
2022/03/28 05:51:08;;;;;;;11.52;10.23;;;6.00;91.40;;;;;;5020028;28;20223;-81
2022/03/28 05:53:34;;;;;;;18.50;11.02;;;6.00;91.70;;;;;;5028766;28;20237;-80
2022/03/28 05:56:04;;;;;;;14.25;10.57;;;6.00;91.40;;;;;;5039532;28;20210;-80
2022/03/28 05:58:32;;;;;;;11.82;9.70;;;6.00;90.90;;;;;;5031713;28;20218;-81
2022/03/28 06:01:00;;;;;;;14.13;10.48;;;6.10;90.50;;;;;;5019522;28;20239;-80
2022/03/28 06:03:26;;;;;;;11.27;9.68;;;6.20;90.10;;;;;;5023546;28;20202;-82
2022/03/28 06:05:53;;;;;;;12.63;10.20;;;6.30;89.70;;;;;;5036347;28;20586;-82
2022/03/28 06:08:20;;;;;;;11.27;9.80;;;6.40;89.00;;;;;;5030837;28;20209;-82
2022/03/28 06:10:47;;;;;;;13.30;11.52;;;6.50;88.30;;;;;;5031558;28;20226;-82
2022/03/28 06:13:16;;;;;;;23.98;11.50;;;6.50;88.00;;;;;;5018626;28;20215;-82
2022/03/28 06:15:43;;;;;;;17.75;10.45;;;6.50;87.70;;;;;;5028692;28;20230;-83
2022/03/28 06:18:10;;;;;;;16.92;11.98;;;6.60;87.40;;;;;;5048416;28;20222;-82
2022/03/28 06:20:37;;;;;;;13.88;10.02;;;6.60;87.60;;;;;;5051297;28;20230;-83
2022/03/28 06:23:04;;;;;;;14.98;9.43;;;6.60;87.30;;;;;;5045714;28;20214;-82
2022/03/28 06:25:30;;;;;;;14.88;9.35;;;6.60;87.20;;;;;;5030937;28;20203;-82
2022/03/28 06:27:57;;;;;;;11.25;10.00;;;6.70;87.50;;;;;;5022137;28;20275;-83
2022/03/28 06:30:25;;;;;;;16.52;12.38;;;6.70;87.20;;;;;;5017473;28;20223;-83
2022/03/28 06:32:52;;;;;;;16.58;11.38;;;6.70;87.20;;;;;;5022491;28;20195;-83
2022/03/28 06:35:19;;;;;;;14.15;10.95;;;6.80;87.10;;;;;;5025420;28;20203;-83
2022/03/28 06:37:45;;;;;;;14.05;9.45;;;6.80;86.70;;;;;;5010617;28;20211;-82
2022/03/28 06:40:13;;;;;;;10.23;9.23;;;6.90;86.80;;;;;;5047094;28;20746;-82
2022/03/28 06:42:40;;;;;;;16.70;11.02;;;6.90;86.10;;;;;;5048999;28;20206;-82
2022/03/28 06:45:09;;;;;;;9.95;8.95;;;6.90;86.00;;;;;;5029598;28;20218;-83
2022/03/28 06:47:37;;;;;;;15.30;11.30;;;7.00;85.50;;;;;;5030409;28;20246;-83
2022/03/28 06:50:05;;;;;;;13.05;9.85;;;7.10;85.70;;;;;;5047744;28;20281;-83
2022/03/28 06:52:32;;;;;;;14.98;11.27;;;7.10;85.50;;;;;;5023441;28;20204;-84
2022/03/28 06:54:59;;;;;;;15.50;10.20;;;7.20;85.00;;;;;;5018214;28;20208;-84
2022/03/28 06:57:26;;;;;;;16.40;11.07;;;7.30;84.90;;;;;;5013284;28;20211;-84
2022/03/28 06:59:53;;;;;;;17.70;11.73;;;7.40;84.60;;;;;;5033650;28;20231;-84
2022/03/28 07:02:20;;;;;;;14.45;10.45;;;7.50;84.20;;;;;;5036886;28;20192;-84
2022/03/28 07:04:48;;;;;;;12.90;9.50;;;7.60;84.50;;;;;;5029959;28;20204;-81
2022/03/28 07:07:15;;;;;;;16.98;12.00;;;7.70;84.40;;;;;;5029973;28;20235;-85
2022/03/28 07:09:41;;;;;;;17.42;12.45;;;7.80;86.80;;;;;;5021386;28;20203;-81
2022/03/28 07:12:10;;;;;;;17.33;9.93;;;8.00;87.30;;;;;;5032781;28;20206;-82
2022/03/28 07:14:37;;;;;;;13.45;9.80;;;8.10;86.10;;;;;;5019388;28;20220;-81
2022/03/28 07:17:04;;;;;;;16.13;10.90;;;8.30;85.20;;;;;;5021134;28;20219;-83
2022/03/28 07:19:31;;;;;;;12.05;9.75;;;8.40;84.40;;;;;;5029753;28;20227;-83
2022/03/28 07:21:59;;;;;;;15.40;11.70;;;8.40;84.20;;;;;;5040258;28;20203;-82
2022/03/28 07:24:25;;;;;;;15.82;11.23;;;8.60;84.50;;;;;;5053101;28;20235;-82
2022/03/28 07:26:53;;;;;;;18.02;12.05;;;8.70;83.70;;;;;;5045039;28;20203;-82
2022/03/28 07:29:20;;;;;;;14.17;10.47;;;8.90;82.90;;;;;;5032541;28;20278;-82
2022/03/28 07:31:48;;;;;;;15.63;11.07;;;9.00;81.70;;;;;;5033993;28;20477;-82
2022/03/28 07:37:06;;;;;;;11.97;9.50;;;9.30;81.40;;;;;;5023086;28;20447;-82
2022/03/28 07:39:34;;;;;;;12.87;10.60;;;9.50;80.40;;;;;;5036270;28;20486;-80
2022/03/28 07:42:01;;;;;;;14.63;10.53;;;9.60;79.10;;;;;;5039911;28;20476;-81
2022/03/28 07:44:28;;;;;;;13.93;10.17;;;9.80;78.20;;;;;;5040333;28;20537;-81
2022/03/28 07:46:55;;;;;;;27.07;11.50;;;9.90;77.10;;;;;;5033864;28;20836;-80
2022/03/28 07:49:24;;;;;;;14.03;11.57;;;10.00;75.60;;;;;;5020534;28;20470;-80
2022/03/28 07:51:51;;;;;;;16.40;12.10;;;10.20;75.80;;;;;;5026943;28;20457;-80
2022/03/28 07:54:19;;;;;;;22.47;13.90;;;10.30;75.80;;;;;;5029830;28;20436;-81
2022/03/28 07:56:46;;;;;;;15.70;11.33;;;10.50;74.80;;;;;;5021435;28;20456;-80
2022/03/28 07:59:13;;;;;;;15.47;12.77;;;10.60;73.70;;;;;;5019839;28;20494;-81
2022/03/28 08:01:40;;;;;;;14.60;10.57;;;10.70;73.70;;;;;;5019735;28;20511;-83
2022/03/28 08:04:07;;;;;;;15.50;11.07;;;10.80;72.90;;;;;;5033957;28;20538;-81
2022/03/28 08:06:34;;;;;;;16.17;12.40;;;11.00;72.80;;;;;;5038657;28;21000;-80
2022/03/28 08:09:01;;;;;;;16.17;11.60;;;11.10;72.60;;;;;;5027032;28;20814;-81
2022/03/28 08:11:29;;;;;;;13.10;11.60;;;11.20;71.50;;;;;;5019275;28;20672;-81
2022/03/28 08:13:56;;;;;;;18.10;12.37;;;11.30;71.70;;;;;;5030181;28;20550;-81
2022/03/28 08:16:23;;;;;;;11.73;10.20;;;11.40;71.50;;;;;;5042660;28;20524;-81
2022/03/28 08:18:50;;;;;;;16.77;13.17;;;11.50;71.50;;;;;;5031846;28;20489;-81
2022/03/28 08:21:17;;;;;;;20.23;12.43;;;11.60;71.20;;;;;;5020406;28;20477;-81
2022/03/28 08:23:43;;;;;;;16.67;13.80;;;11.80;71.10;;;;;;5028895;28;20467;-81
2022/03/28 08:26:10;;;;;;;16.37;12.97;;;11.90;71.30;;;;;;5040959;28;20449;-80
2022/03/28 08:28:39;;;;;;;15.57;11.07;;;12.10;69.80;;;;;;5027871;28;20445;-80
2022/03/28 08:31:06;;;;;;;15.40;11.80;;;12.20;69.50;;;;;;5002267;28;20449;-80
2022/03/28 08:33:33;;;;;;;13.40;11.50;;;12.20;69.80;;;;;;5002082;28;20451;-80
2022/03/28 08:36:00;;;;;;;18.17;12.57;;;12.40;68.20;;;;;;5003570;28;20451;-80
2022/03/28 08:38:26;;;;;;;17.40;13.57;;;12.50;67.50;;;;;;5003108;28;20458;-80
2022/03/28 08:40:53;;;;;;;14.07;11.60;;;12.70;67.70;;;;;;5003343;28;20475;-80
2022/03/28 08:43:22;;;;;;;16.63;12.83;;;12.80;67.50;;;;;;5003917;28;20455;-80
2022/03/28 08:45:51;;;;;;;22.37;13.23;;;13.00;67.30;;;;;;5003776;28;20454;-80
2022/03/28 08:48:19;;;;;;;15.47;13.90;;;13.10;66.60;;;;;;5003890;28;20455;-80
2022/03/28 08:50:50;;;;;;;18.23;13.90;;;13.20;64.60;;;;;;5002964;28;20478;-80
2022/03/28 08:53:18;;;;;;;15.30;13.20;;;13.30;65.30;;;;;;5003454;28;20474;-80
2022/03/28 08:55:46;;;;;;;17.17;14.23;;;13.50;65.90;;;;;;5003381;28;21018;-80
2022/03/28 08:58:14;;;;;;;19.10;12.87;;;13.60;66.00;;;;;;5003141;28;20452;-80
2022/03/28 09:00:41;;;;;;;15.40;12.43;;;13.80;65.60;;;;;;5002576;28;20550;-80
2022/03/28 09:03:09;;;;;;;20.50;14.07;;;14.00;63.80;;;;;;5003428;28;20963;-80
2022/03/28 09:05:38;;;;;;;16.50;13.30;;;14.20;64.30;;;;;;5003506;28;20452;-80
2022/03/28 09:08:07;;;;;;;14.83;13.20;;;14.30;63.00;;;;;;5002789;28;20478;-80
2022/03/28 09:10:35;;;;;;;14.80;13.30;;;14.40;61.10;;;;;;5002737;28;20472;-80
2022/03/28 09:13:05;;;;;;;16.33;12.20;;;14.60;61.00;;;;;;5002283;28;20830;-80
2022/03/28 09:15:46;;;;;;;18.50;13.57;;;14.70;61.30;;;;;;5002811;28;20464;-80
2022/03/28 09:18:22;;;;;;;20.60;12.37;;;14.80;59.70;;;;;;5003070;28;20459;-80
2022/03/28 09:20:50;;;;;;;15.80;13.07;;;15.00;60.20;;;;;;5002870;28;20465;-80
2022/03/28 09:23:38;;;;;;;17.30;12.70;;;15.10;59.70;;;;;;5003532;28;20452;-80
2022/03/28 09:26:11;;;;;;;17.37;13.10;;;15.30;58.50;;;;;;5002924;28;21020;-81
2022/03/28 09:28:46;;;;;;;20.73;13.70;;;15.50;58.30;;;;;;5002795;28;20474;-80
2022/03/28 09:31:27;;;;;;;15.00;13.50;;;15.70;58.60;;;;;;5002501;28;20464;-80
2022/03/28 09:34:02;;;;;;;18.80;13.47;;;15.80;58.60;;;;;;5002652;28;20455;-80
2022/03/28 09:36:41;;;;;;;14.93;12.30;;;15.90;58.00;;;;;;5003761;28;20447;-80
2022/03/28 09:39:10;;;;;;;19.50;13.40;;;16.00;58.10;;;;;;5002993;28;20495;-80
2022/03/28 09:41:37;;;;;;;14.73;12.60;;;16.20;58.80;;;;;;5002306;28;20990;-80
2022/03/28 09:44:04;;;;;;;22.23;14.40;;;16.40;57.30;;;;;;5002937;28;20457;-81
2022/03/28 09:46:32;;;;;;;14.40;11.97;;;16.60;56.80;;;;;;5006363;28;20457;-80
2022/03/28 09:49:01;;;;;;;17.07;14.37;;;16.70;56.60;;;;;;5008428;28;20456;-80
2022/03/28 09:51:29;;;;;;;16.93;14.30;;;16.80;56.00;;;;;;5003596;28;20477;-81
2022/03/28 09:53:56;;;;;;;18.50;12.57;;;16.90;56.50;;;;;;5003142;28;20451;-80
2022/03/28 09:56:23;;;;;;;15.57;11.93;;;17.10;55.10;;;;;;5003963;28;20847;-80
2022/03/28 09:58:56;;;;;;;16.50;14.00;;;17.20;56.10;;;;;;5003992;28;20453;-81
2022/03/28 10:01:26;;;;;;;15.97;14.27;;;17.40;56.40;;;;;;5004066;28;20545;-81
2022/03/28 10:03:54;;;;;;;31.13;13.67;;;17.60;55.80;;;;;;5003715;28;20453;-80
2022/03/28 10:06:24;;;;;;;18.97;13.67;;;17.80;55.50;;;;;;5003583;28;20524;-81
2022/03/28 10:08:51;;;;;;;14.50;11.37;;;18.00;54.80;;;;;;5003256;28;20461;-81
2022/03/28 10:11:19;;;;;;;23.47;15.27;;;18.10;54.10;;;;;;5003103;28;20481;-81
2022/03/28 10:13:46;;;;;;;15.60;13.00;;;18.30;54.10;;;;;;5004239;28;20526;-82
2022/03/28 10:16:14;;;;;;;15.87;14.30;;;18.50;53.70;;;;;;5003815;28;20672;-81
2022/03/28 10:18:42;;;;;;;13.53;11.73;;;18.60;52.60;;;;;;5004570;28;20462;-81
2022/03/28 10:21:15;;;;;;;16.90;12.50;;;18.80;52.70;;;;;;5003851;28;20462;-81
2022/03/28 10:23:49;;;;;;;19.40;12.53;;;18.90;53.10;;;;;;5002516;28;20458;-82
2022/03/28 10:26:19;;;;;;;21.63;13.63;;;19.10;51.60;;;;;;5004273;28;20815;-81
2022/03/28 10:29:01;;;;;;;17.10;12.53;;;19.30;51.10;;;;;;5004180;28;20451;-81
2022/03/28 10:31:30;;;;;;;17.13;12.90;;;19.60;52.40;;;;;;5003838;28;20472;-81
2022/03/28 10:33:57;;;;;;;19.17;12.67;;;19.80;51.30;;;;;;5004869;28;20463;-81
2022/03/28 10:36:27;;;;;;;14.93;12.10;;;20.00;49.50;;;;;;5003657;28;20447;-81
2022/03/28 10:39:16;;;;;;;18.73;13.97;;;20.20;49.70;;;;;;5004134;28;20485;-81
2022/03/28 10:41:42;;;;;;;20.13;14.30;;;20.40;49.50;;;;;;5004571;28;20472;-81
2022/03/28 10:44:09;;;;;;;17.20;14.80;;;20.50;48.20;;;;;;5004599;28;20452;-81
2022/03/28 10:46:36;;;;;;;18.43;15.57;;;20.70;46.10;;;;;;5004536;28;20445;-81
2022/03/28 10:49:06;;;;;;;14.27;12.70;;;20.90;44.90;;;;;;5004366;28;20455;-81
2022/03/28 10:51:33;;;;;;;14.70;13.00;;;21.10;44.40;;;;;;5005991;28;20481;-81
2022/03/28 10:54:05;;;;;;;15.27;13.67;;;21.40;45.20;;;;;;5010887;28;20453;-82
2022/03/28 10:56:34;;;;;;;16.97;13.70;;;21.60;47.20;;;;;;5010739;28;20516;-81
2022/03/28 10:59:06;;;;;;;16.30;14.60;;;21.80;44.30;;;;;;5009742;28;20471;-81
2022/03/28 11:01:34;;;;;;;17.73;14.00;;;22.00;41.80;;;;;;5003402;28;20491;-82
2022/03/28 11:04:07;;;;;;;16.90;15.00;;;22.20;41.90;;;;;;5006954;28;20454;-82
2022/03/28 11:07:00;;;;;;;14.70;13.07;;;22.50;41.40;;;;;;5007203;28;20580;-81
2022/03/28 11:09:46;;;;;;;16.67;12.80;;;22.80;40.30;;;;;;5007155;28;20478;-82
2022/03/28 11:12:16;;;;;;;15.73;14.00;;;23.50;42.30;;;;;;5007008;28;20509;-82
2022/03/28 11:14:46;;;;;;;15.20;13.40;;;24.10;42.20;;;;;;5007339;28;20453;-82
2022/03/28 11:17:18;;;;;;;13.40;11.80;;;24.80;40.40;;;;;;5006457;28;21138;-82
2022/03/28 11:19:56;;;;;;;15.70;14.00;;;25.50;38.90;;;;;;5005456;28;20511;-80
2022/03/28 11:22:41;;;;;;;14.57;13.10;;;26.20;37.00;;;;;;5004793;28;20477;-80
2022/03/28 11:25:41;;;;;;;15.40;13.80;;;26.40;32.20;;;;;;5005151;28;20463;-80
2022/03/28 11:28:11;;;;;;;13.57;12.17;;;26.60;33.10;;;;;;5005851;28;20442;-80
2022/03/28 11:30:40;;;;;;;14.13;12.70;;;27.00;31.40;;;;;;5006181;28;20467;-82
2022/03/28 11:33:09;;;;;;;12.70;11.40;;;27.40;30.40;;;;;;5007604;28;20491;-81
2022/03/28 11:35:37;;;;;;;12.97;11.67;;;27.00;28.70;;;;;;5010396;28;20442;-81
2022/03/28 11:38:04;;;;;;;15.27;11.90;;;26.20;27.50;;;;;;5019296;28;20476;-80
2022/03/28 11:40:40;;;;;;;12.63;11.43;;;25.20;28.40;;;;;;5008197;28;20512;-80
2022/03/28 11:43:07;;;;;;;12.60;11.43;;;25.10;29.00;;;;;;5006416;28;20447;-82
2022/03/28 11:45:34;;;;;;;12.10;11.00;;;25.20;28.40;;;;;;5007415;28;20977;-80
2022/03/28 11:48:01;;;;;;;11.50;10.47;;;25.00;29.00;;;;;;5005876;28;20454;-80
2022/03/28 11:50:30;;;;;;;15.73;13.60;;;25.30;30.20;;;;;;5004772;28;20480;-80
2022/03/28 11:52:57;;;;;;;13.73;12.33;;;25.00;31.60;;;;;;5005913;28;20460;-80
2022/03/28 11:55:25;;;;;;;15.87;13.10;;;24.80;28.80;;;;;;5004854;28;20451;-80
2022/03/28 12:00:40;;;;;;;17.57;15.67;;;25.50;32.20;;;;;;5004327;28;20490;-81
2022/03/28 12:03:10;;;;;;;17.17;14.97;;;25.40;32.90;;;;;;5006329;28;20459;-81
2022/03/28 12:05:39;;;;;;;17.80;16.00;;;24.90;32.90;;;;;;5004990;28;20451;-81
2022/03/28 12:08:09;;;;;;;17.33;15.43;;;25.10;32.50;;;;;;5005564;28;20453;-81
2022/03/28 12:10:38;;;;;;;16.57;14.70;;;25.70;33.10;;;;;;5005345;28;20473;-81
2022/03/28 12:13:08;;;;;;;19.43;16.10;;;26.00;31.60;;;;;;5005142;28;20477;-81
2022/03/28 12:15:36;;;;;;;20.70;15.20;;;26.10;31.20;;;;;;5004483;28;20450;-81
2022/03/28 12:18:05;;;;;;;19.43;17.13;;;25.80;31.00;;;;;;5005293;28;20453;-81
2022/03/28 12:20:34;;;;;;;18.87;16.87;;;25.40;31.60;;;;;;5004879;28;20491;-81
2022/03/28 12:23:03;;;;;;;18.40;16.40;;;25.70;32.70;;;;;;5005416;28;20447;-81
2022/03/28 12:25:32;;;;;;;24.60;18.93;;;26.30;31.60;;;;;;5004906;28;20518;-81
2022/03/28 12:28:01;;;;;;;20.17;16.47;;;26.80;31.40;;;;;;5005651;28;20967;-82
2022/03/28 12:30:32;;;;;;;20.93;17.77;;;27.30;31.00;;;;;;5005222;28;20489;-81
2022/03/28 12:33:08;;;;;;;18.73;15.97;;;27.60;30.30;;;;;;5005552;28;20803;-81
2022/03/28 12:35:36;;;;;;;21.23;18.20;;;28.30;30.10;;;;;;5005186;28;20480;-81
2022/03/28 12:38:05;;;;;;;19.80;17.70;;;28.10;29.60;;;;;;5005220;28;20504;-81
2022/03/28 12:40:32;;;;;;;21.43;16.40;;;27.60;29.50;;;;;;5005185;28;20600;-81
2022/03/28 12:43:02;;;;;;;20.40;18.10;;;27.50;30.00;;;;;;5005830;28;20453;-81
2022/03/28 12:45:31;;;;;;;16.77;15.00;;;27.40;30.20;;;;;;5009444;28;20952;-82
2022/03/28 12:48:04;;;;;;;20.10;17.60;;;27.20;30.50;;;;;;5009950;28;20474;-82
2022/03/28 12:50:31;;;;;;;20.30;17.20;;;27.00;31.10;;;;;;5007107;28;20467;-82